Time;durP1;ratioP1;P1;durP2;ratioP2;P2;SDS_P1;SDS_P2;PMS_P1;PMS_P2;Temp;Humidity;BMP_temperature;BMP_pressure;BME280_temperature;BME280_humidity;BME280_pressure;Samples;Min_cycle;Max_cycle;Signal;HPM_P1;HPM_P2
2022/10/25 00:01:40;;;;;;;18.40;6.10;;;20.30;93.30;;;20.05;66.29;98616.91;5048162;28;20036;-77
2022/10/25 00:04:06;;;;;;;7.63;5.90;;;20.30;93.20;;;20.04;66.30;98628.25;5077028;28;20043;-77
2022/10/25 00:06:32;;;;;;;6.97;5.43;;;20.30;93.30;;;20.05;66.31;98632.63;5051811;28;20483;-77
2022/10/25 00:08:58;;;;;;;6.18;4.68;;;20.30;93.30;;;20.04;66.74;98625.50;5083684;28;20109;-77
2022/10/25 00:11:27;;;;;;;7.93;4.55;;;20.30;93.40;;;20.06;66.63;98623.22;5081520;28;20040;-75
2022/10/25 00:13:55;;;;;;;8.45;5.75;;;20.30;93.40;;;20.04;66.25;98620.00;5048390;28;20050;-76
2022/10/25 00:16:24;;;;;;;7.63;5.35;;;20.30;93.20;;;20.04;66.25;98625.50;5051111;28;20059;-76
2022/10/25 00:18:50;;;;;;;8.93;5.35;;;20.30;93.20;;;20.04;66.15;98628.25;5065250;28;20032;-76
2022/10/25 00:21:16;;;;;;;5.45;4.60;;;20.30;93.20;;;20.05;65.86;98630.69;5045389;28;20114;-76
2022/10/25 00:23:42;;;;;;;8.05;5.10;;;20.30;93.20;;;20.05;66.44;98622.44;5054456;28;20055;-76
2022/10/25 00:26:09;;;;;;;9.45;5.80;;;20.30;93.30;;;20.03;66.82;98608.19;5077184;28;20403;-76
2022/10/25 00:28:36;;;;;;;5.10;4.07;;;20.30;93.30;;;20.04;66.59;98609.00;5062441;28;20040;-76
2022/10/25 00:31:11;;;;;;;8.70;5.20;;;20.30;93.30;;;20.03;66.39;98604.66;5074627;28;20082;-76
2022/10/25 00:33:37;;;;;;;7.45;5.40;;;20.30;93.20;;;20.05;65.87;98610.59;5046224;28;20040;-76
2022/10/25 00:36:14;;;;;;;8.10;5.05;;;20.30;93.20;;;20.04;66.29;98615.28;5044863;28;20066;-76
2022/10/25 00:38:41;;;;;;;8.30;5.10;;;20.30;93.20;;;20.04;66.24;98620.81;5069747;28;20036;-76
2022/10/25 00:41:07;;;;;;;7.18;5.35;;;20.30;93.30;;;20.05;66.45;98619.69;5077378;28;20124;-76
2022/10/25 00:43:40;;;;;;;6.75;5.00;;;20.30;93.30;;;20.04;66.42;98618.06;5057311;28;20119;-76
2022/10/25 00:46:21;;;;;;;5.18;4.68;;;20.30;93.30;;;20.02;66.29;98620.34;5080584;28;20063;-76
2022/10/25 00:49:04;;;;;;;5.57;4.72;;;20.30;93.30;;;20.03;65.84;98630.22;5059797;28;20134;-76
2022/10/25 00:51:52;;;;;;;4.90;4.35;;;20.30;93.20;;;20.02;66.05;98625.84;5058801;28;20086;-76
2022/10/25 00:54:21;;;;;;;6.78;5.05;;;20.30;93.20;;;20.02;66.38;98625.84;5058344;28;20056;-76
2022/10/25 00:56:47;;;;;;;5.40;4.20;;;20.30;93.30;;;20.03;66.30;98626.66;5041737;28;20043;-76
2022/10/25 00:59:17;;;;;;;6.95;4.93;;;20.30;93.30;;;20.03;66.44;98630.22;5060432;28;20055;-76
2022/10/25 01:01:43;;;;;;;5.95;4.72;;;20.30;93.30;;;20.03;66.34;98629.41;5049457;28;20051;-76
2022/10/25 01:04:12;;;;;;;7.20;4.78;;;20.30;93.20;;;20.03;65.85;98632.19;5028804;28;20041;-76
2022/10/25 01:06:56;;;;;;;5.82;4.93;;;20.30;93.20;;;20.00;66.25;98636.41;5025843;28;20043;-76
2022/10/25 01:09:27;;;;;;;7.65;4.80;;;20.30;93.20;;;20.02;65.69;98631.34;5049245;28;20072;-76
2022/10/25 01:11:53;;;;;;;7.82;4.82;;;20.30;93.20;;;20.01;66.33;98609.69;5044693;28;20145;-75
2022/10/25 01:14:19;;;;;;;6.10;5.03;;;20.30;93.30;;;20.02;66.52;98611.28;5042920;28;20044;-76
2022/10/25 01:17:18;;;;;;;5.13;4.63;;;20.30;93.30;;;20.02;66.50;98612.06;5030112;28;20045;-76
2022/10/25 01:20:23;;;;;;;6.30;4.97;;;20.30;93.30;;;20.02;66.08;98614.03;5031980;28;20056;-76
2022/10/25 01:23:32;;;;;;;8.35;5.25;;;20.30;93.20;;;20.00;65.98;98617.13;5061864;28;20082;-75
2022/10/25 01:26:54;;;;;;;6.53;4.95;;;20.30;93.20;;;19.97;66.10;98617.00;5058450;28;20483;-75
2022/10/25 01:30:05;;;;;;;5.80;4.40;;;20.20;93.10;;;19.99;66.36;98620.22;5055638;28;20143;-76
2022/10/25 01:32:37;;;;;;;4.65;4.00;;;20.20;93.30;;;19.97;66.47;98626.06;5063148;28;20087;-77
2022/10/25 01:35:28;;;;;;;7.30;4.75;;;20.20;93.30;;;20.02;65.86;98622.28;5057522;28;20136;-77
2022/10/25 01:38:17;;;;;;;9.05;4.32;;;20.20;93.20;;;20.00;66.17;98621.81;5058122;28;20033;-77
2022/10/25 01:41:00;;;;;;;5.53;4.22;;;20.30;93.20;;;19.99;65.94;98621.03;5048650;28;20063;-76
2022/10/25 01:43:35;;;;;;;7.25;4.70;;;20.30;93.20;;;19.98;66.35;98624.94;5040631;28;20492;-77
2022/10/25 01:46:08;;;;;;;5.18;4.50;;;20.30;93.30;;;20.02;66.30;98616.78;5045665;28;20028;-77
2022/10/25 01:48:40;;;;;;;6.50;4.43;;;20.30;93.30;;;20.01;66.31;98624.25;5081719;28;20069;-76
2022/10/25 01:51:13;;;;;;;5.15;4.10;;;20.20;93.40;;;19.98;65.82;98618.63;5034977;28;20041;-76
2022/10/25 01:53:50;;;;;;;6.32;4.63;;;20.30;93.20;;;19.98;66.13;98621.38;5051173;28;20040;-77
2022/10/25 01:56:37;;;;;;;5.95;4.75;;;20.20;93.10;;;19.98;65.79;98608.41;5064913;28;20402;-77
2022/10/25 01:59:05;;;;;;;5.40;4.47;;;20.20;93.10;;;19.98;66.16;98611.16;5046767;28;20040;-77
2022/10/25 02:01:46;;;;;;;5.90;4.70;;;20.20;93.20;;;19.97;66.36;98608.75;5080532;28;20060;-77
2022/10/25 02:04:32;;;;;;;6.88;4.75;;;20.30;93.30;;;19.95;66.50;98609.91;5068639;28;20052;-77
2022/10/25 02:07:25;;;;;;;4.32;3.78;;;20.20;93.20;;;19.97;66.24;98608.75;5069337;28;20045;-77
2022/10/25 02:10:28;;;;;;;6.22;4.57;;;20.20;93.20;;;19.95;66.42;98622.88;5076984;28;20423;-77
2022/10/25 02:12:56;;;;;;;7.90;5.05;;;20.20;93.10;;;19.95;66.13;98625.63;5037487;28;20426;-77
2022/10/25 02:15:39;;;;;;;4.97;4.47;;;20.20;93.10;;;19.96;66.38;98635.47;5064817;28;20036;-77
2022/10/25 02:18:14;;;;;;;4.28;3.88;;;20.20;93.20;;;19.96;66.50;98632.72;5039586;28;20041;-77
2022/10/25 02:20:41;;;;;;;4.35;3.58;;;20.20;93.30;;;19.94;66.53;98624.00;5064504;28;20123;-77
2022/10/25 02:23:07;;;;;;;3.50;3.17;;;20.20;93.30;;;19.95;66.09;98634.69;5048886;28;20040;-77
2022/10/25 02:25:34;;;;;;;6.38;4.53;;;20.20;93.20;;;19.95;66.11;98633.88;5069019;28;20038;-77
2022/10/25 02:28:03;;;;;;;4.68;3.97;;;20.20;93.20;;;19.95;66.12;98647.63;5050690;28;20454;-77
2022/10/25 02:30:29;;;;;;;5.97;4.88;;;20.20;93.20;;;19.96;65.74;98646.47;5050835;28;20041;-77
2022/10/25 02:32:55;;;;;;;6.53;4.20;;;20.20;93.10;;;19.94;66.50;98643.25;5036064;28;20040;-77
2022/10/25 02:35:21;;;;;;;5.10;3.65;;;20.20;93.30;;;19.94;66.49;98627.53;5051173;28;20044;-77
2022/10/25 02:37:47;;;;;;;4.70;4.03;;;20.20;93.30;;;19.95;66.49;98633.88;5066150;28;20040;-76
2022/10/25 02:40:14;;;;;;;6.78;4.30;;;20.20;93.30;;;19.94;66.06;98632.25;5048009;28;20040;-76
2022/10/25 02:42:40;;;;;;;5.75;4.93;;;20.20;93.20;;;19.94;66.00;98643.25;5039623;28;20043;-76
2022/10/25 02:45:07;;;;;;;4.38;3.97;;;20.20;93.20;;;19.93;65.81;98645.22;5051983;28;20044;-77
2022/10/25 02:47:33;;;;;;;5.78;4.78;;;20.20;93.10;;;19.93;66.34;98642.47;5067438;28;20123;-77
2022/10/25 02:49:59;;;;;;;5.25;4.22;;;20.20;93.20;;;19.90;66.59;98631.34;5067782;28;20820;-77
2022/10/25 02:52:25;;;;;;;6.25;3.83;;;20.20;93.30;;;19.90;66.71;98637.63;5033441;28;20094;-77
2022/10/25 02:54:51;;;;;;;4.97;4.00;;;20.20;93.30;;;19.88;66.35;98630.88;5084396;28;20422;-77
2022/10/25 02:57:17;;;;;;;6.18;4.50;;;20.20;93.20;;;19.89;66.23;98622.25;5048422;28;20040;-77
2022/10/25 02:59:43;;;;;;;4.78;3.60;;;20.10;93.20;;;19.88;66.29;98628.91;5084973;28;20102;-77
2022/10/25 03:02:09;;;;;;;4.80;3.88;;;20.10;93.20;;;19.88;66.49;98625.38;5081977;28;20119;-77
2022/10/25 03:04:35;;;;;;;5.25;4.00;;;20.20;93.20;;;19.89;66.63;98625.00;5055663;28;20047;-76
2022/10/25 03:07:02;;;;;;;3.95;3.63;;;20.10;93.30;;;19.87;66.60;98619.06;5067342;28;20036;-77
2022/10/25 03:09:28;;;;;;;6.35;3.85;;;20.20;93.30;;;19.87;66.81;98632.00;5049884;28;20072;-77
2022/10/25 03:11:54;;;;;;;4.53;3.67;;;20.10;93.30;;;19.87;66.63;98627.31;5066500;28;20414;-76
2022/10/25 03:14:20;;;;;;;5.75;4.00;;;20.10;93.20;;;19.87;66.20;98635.56;5048563;28;20041;-76
2022/10/25 03:16:46;;;;;;;3.88;3.47;;;20.10;93.20;;;19.88;66.29;98630.88;5064631;28;20161;-76
2022/10/25 03:19:12;;;;;;;4.13;3.58;;;20.10;93.20;;;19.89;65.90;98632.47;5063179;28;20037;-77
2022/10/25 03:21:38;;;;;;;5.25;4.32;;;20.10;93.10;;;19.90;66.49;98645.91;5052930;28;20096;-76
2022/10/25 03:24:06;;;;;;;5.18;3.95;;;20.10;93.30;;;19.86;66.69;98644.16;5056687;28;20048;-77
2022/10/25 03:26:32;;;;;;;5.30;3.75;;;20.10;93.30;;;19.89;66.41;98637.97;5069222;28;20032;-76
2022/10/25 03:28:58;;;;;;;7.97;3.58;;;20.10;93.30;;;19.87;66.18;98638.31;5073869;28;20482;-77
2022/10/25 03:31:24;;;;;;;4.32;3.33;;;20.10;93.20;;;19.86;66.17;98644.97;5065437;28;20155;-78
2022/10/25 03:33:50;;;;;;;4.28;3.88;;;20.10;93.20;;;19.88;65.97;98644.63;5058312;28;20085;-78
2022/10/25 03:36:16;;;;;;;4.80;3.70;;;20.10;93.10;;;19.86;66.29;98633.94;5049950;28;20488;-78
2022/10/25 03:38:42;;;;;;;5.43;3.80;;;20.10;93.30;;;19.87;66.59;98649.34;5065526;28;20371;-78
2022/10/25 03:41:08;;;;;;;7.10;4.03;;;20.10;93.40;;;19.87;66.34;98648.50;5079920;28;20044;-78
2022/10/25 03:43:35;;;;;;;5.25;4.22;;;20.10;93.30;;;19.88;66.54;98661.16;5066551;28;20364;-79
2022/10/25 03:46:01;;;;;;;4.60;3.53;;;20.10;93.30;;;19.87;66.09;98654.00;5048878;28;20056;-79
2022/10/25 03:48:27;;;;;;;5.82;4.43;;;20.10;93.20;;;19.88;66.07;98655.63;5047732;28;20078;-80
2022/10/25 03:50:53;;;;;;;3.72;3.30;;;20.10;93.10;;;19.88;66.08;98655.63;5053921;28;20060;-80
2022/10/25 03:53:19;;;;;;;4.28;3.65;;;20.10;93.10;;;19.87;66.08;98656.75;5064308;28;20425;-80
2022/10/25 03:55:47;;;;;;;3.92;3.53;;;20.10;93.20;;;19.87;65.53;98657.59;5056709;28;20044;-80
2022/10/25 03:58:12;;;;;;;5.82;4.35;;;20.10;93.10;;;19.90;65.36;98658.88;5056015;28;20045;-81
2022/10/25 04:00:39;;;;;;;3.80;3.25;;;20.10;93.10;;;19.89;65.10;98660.00;5036192;28;20131;-80
2022/10/25 04:03:05;;;;;;;6.72;4.20;;;20.10;93.10;;;19.84;65.69;98662.94;5072074;28;20123;-81
2022/10/25 04:05:31;;;;;;;3.10;2.80;;;20.10;93.10;;;19.87;65.85;98657.59;5052171;28;20218;-80
2022/10/25 04:07:57;;;;;;;5.75;3.35;;;20.10;93.30;;;19.84;65.99;98655.50;5040444;28;20045;-81
2022/10/25 04:10:24;;;;;;;4.28;3.92;;;20.10;93.20;;;19.87;65.66;98656.75;5062619;28;20403;-81
2022/10/25 04:12:51;;;;;;;5.13;4.25;;;20.10;93.10;;;19.88;64.96;98661.16;5049371;28;20174;-80
2022/10/25 04:15:18;;;;;;;4.07;3.40;;;20.10;93.00;;;19.89;64.90;98660.00;5068418;28;20719;-80
2022/10/25 04:17:44;;;;;;;4.95;3.85;;;20.00;93.00;;;19.90;64.82;98664.38;5039068;28;20075;-80
2022/10/25 04:20:10;;;;;;;3.95;3.28;;;20.10;93.10;;;19.85;65.57;98659.88;5051327;28;20045;-80
2022/10/25 04:22:36;;;;;;;4.70;3.95;;;20.00;93.10;;;19.83;65.77;98664.09;5031487;28;20036;-79
2022/10/25 04:25:03;;;;;;;4.30;3.75;;;20.00;93.10;;;19.85;65.73;98664.59;5037181;28;20052;-80
2022/10/25 04:27:29;;;;;;;7.10;3.83;;;20.00;93.20;;;19.87;65.11;98665.03;5064623;28;20044;-81
2022/10/25 04:29:55;;;;;;;5.55;3.17;;;20.10;93.10;;;19.87;64.86;98665.84;5066866;28;20064;-81
2022/10/25 04:32:21;;;;;;;4.43;3.85;;;20.00;93.00;;;19.87;64.72;98670.53;5064820;28;20036;-81
2022/10/25 04:34:47;;;;;;;4.20;3.17;;;20.00;93.10;;;19.85;64.86;98668.13;5067443;28;20476;-81
2022/10/25 04:37:13;;;;;;;5.53;4.20;;;20.00;93.00;;;19.84;65.30;98671.22;5062471;28;20048;-81
2022/10/25 04:39:39;;;;;;;7.05;2.97;;;20.00;93.10;;;19.82;65.49;98668.81;5070445;28;20154;-81
2022/10/25 04:42:05;;;;;;;4.32;3.15;;;20.00;93.10;;;19.82;65.40;98679.00;5034614;28;20066;-81
2022/10/25 04:44:31;;;;;;;3.97;3.50;;;20.00;93.10;;;19.86;64.51;98671.69;5053601;28;20046;-80
2022/10/25 04:46:57;;;;;;;4.10;3.67;;;20.00;93.00;;;19.90;64.50;98670.66;5067860;28;20044;-81
2022/10/25 04:49:23;;;;;;;3.97;3.58;;;19.90;93.00;;;19.88;64.22;98666.66;5063511;28;20490;-79
2022/10/25 04:51:49;;;;;;;3.55;2.80;;;20.00;93.00;;;19.87;64.56;98673.28;5032582;28;20032;-79
2022/10/25 04:54:15;;;;;;;3.03;2.80;;;20.00;93.00;;;19.83;65.12;98675.13;5053605;28;20043;-79
2022/10/25 04:56:41;;;;;;;3.33;2.92;;;20.00;93.10;;;19.82;65.25;98662.47;5051844;28;20039;-79
2022/10/25 04:59:08;;;;;;;3.90;3.35;;;20.00;93.10;;;19.83;64.80;98664.91;5055779;28;20139;-79
2022/10/25 05:01:33;;;;;;;4.03;3.40;;;20.00;93.00;;;19.86;64.35;98664.22;5066004;28;20455;-79
2022/10/25 05:03:59;;;;;;;4.28;3.47;;;20.00;92.90;;;19.88;64.39;98666.66;5067693;28;20043;-80
2022/10/25 05:06:26;;;;;;;4.25;3.08;;;20.00;93.00;;;19.87;64.10;98665.03;5066753;28;20075;-80
2022/10/25 05:08:53;;;;;;;4.50;2.72;;;20.00;93.00;;;19.82;64.50;98673.50;5041009;28;20597;-79
2022/10/25 05:11:21;;;;;;;4.25;3.38;;;20.00;93.10;;;19.78;65.19;98676.13;5058961;28;20407;-80
2022/10/25 05:13:48;;;;;;;5.38;3.33;;;20.00;93.10;;;19.77;65.38;98679.19;5070307;28;20078;-80
2022/10/25 05:16:21;;;;;;;3.30;2.80;;;20.00;93.00;;;19.83;64.73;98673.16;5057500;28;20067;-80
2022/10/25 05:18:49;;;;;;;4.93;3.25;;;20.00;93.00;;;19.84;64.30;98672.00;5052884;28;20040;-79
2022/10/25 05:21:15;;;;;;;4.60;3.13;;;20.00;93.00;;;19.84;64.12;98668.47;5049112;28;20119;-80
2022/10/25 05:23:41;;;;;;;4.50;3.65;;;20.00;93.00;;;19.82;63.98;98666.06;5055050;28;20074;-80
2022/10/25 05:26:10;;;;;;;4.72;3.10;;;19.90;92.90;;;19.81;64.92;98663.63;5068000;28;20051;-80
2022/10/25 05:28:37;;;;;;;4.00;3.55;;;20.00;93.10;;;19.79;65.11;98657.66;5045626;28;20028;-80
2022/10/25 05:31:18;;;;;;;4.10;3.10;;;20.00;93.10;;;19.81;64.34;98660.88;5069131;28;20047;-80
2022/10/25 05:33:45;;;;;;;3.05;2.85;;;20.00;93.00;;;19.83;64.27;98655.84;5067191;28;20518;-81
2022/10/25 05:36:12;;;;;;;4.25;2.92;;;20.00;92.90;;;19.85;64.19;98656.31;5056968;28;20499;-80
2022/10/25 05:38:38;;;;;;;5.43;3.78;;;19.90;92.90;;;19.83;63.83;98667.66;5063037;28;20394;-81
2022/10/25 05:41:04;;;;;;;3.83;3.15;;;20.00;92.90;;;19.82;64.46;98667.97;5063748;28;20062;-80
2022/10/25 05:43:31;;;;;;;4.15;3.35;;;20.00;93.10;;;19.81;64.63;98672.69;5053195;28;20506;-80
2022/10/25 05:46:12;;;;;;;5.53;3.08;;;19.90;93.00;;;19.79;64.92;98677.72;5033136;28;20040;-80
2022/10/25 05:48:39;;;;;;;4.07;3.10;;;20.00;93.00;;;19.78;64.29;98678.06;5036282;28;20131;-81
2022/10/25 05:51:16;;;;;;;2.55;2.33;;;19.90;92.80;;;19.83;63.96;98681.41;5039489;28;20122;-81
2022/10/25 05:53:47;;;;;;;4.05;3.28;;;20.00;92.90;;;19.81;64.21;98693.91;5081196;28;20067;-81
2022/10/25 05:56:13;;;;;;;4.28;2.85;;;20.00;93.00;;;19.80;64.17;98692.31;5046138;28;20431;-81
2022/10/25 05:58:43;;;;;;;3.83;3.10;;;20.00;92.90;;;19.81;64.06;98697.47;5047247;28;20047;-81
2022/10/25 06:01:10;;;;;;;3.70;3.20;;;19.90;92.80;;;19.84;63.40;98702.28;5055315;28;20040;-81
2022/10/25 06:03:36;;;;;;;4.43;3.13;;;19.90;92.80;;;19.84;64.03;98701.47;5033227;28;20389;-81
2022/10/25 06:06:04;;;;;;;2.78;2.58;;;19.90;92.90;;;19.84;64.26;98707.00;5050198;28;20127;-81
2022/10/25 06:08:30;;;;;;;4.80;3.40;;;20.00;93.00;;;19.85;64.19;98701.16;5043629;28;20100;-81
2022/10/25 06:11:02;;;;;;;3.00;2.78;;;20.00;93.00;;;19.83;64.32;98702.66;5051605;28;20522;-81
2022/10/25 06:13:29;;;;;;;;;;;20.00;92.90;;;19.84;64.04;98718.81;5047777;28;20097;-81
2022/10/25 06:15:55;;;;;;;2.47;2.28;;;20.00;92.90;;;19.84;63.86;98712.50;5050064;28;20185;-81
2022/10/25 06:18:24;;;;;;;3.65;3.33;;;20.00;92.90;;;19.85;63.98;98712.16;5034733;28;20051;-80
2022/10/25 06:20:50;;;;;;;4.28;2.88;;;20.00;92.80;;;19.88;64.14;98716.19;5081316;28;20043;-81
2022/10/25 06:23:16;;;;;;;3.58;3.08;;;20.00;93.00;;;19.89;64.29;98715.03;5064800;28;20040;-81
2022/10/25 06:25:42;;;;;;;3.58;2.72;;;20.00;93.00;;;19.87;64.28;98720.06;5037239;28;20043;-81
2022/10/25 06:28:09;;;;;;;3.08;2.80;;;20.00;93.00;;;19.89;63.82;98731.56;5035692;28;20190;-80
2022/10/25 06:30:35;;;;;;;3.22;2.92;;;20.00;92.90;;;19.91;63.68;98730.06;5056616;28;20044;-80
2022/10/25 06:33:01;;;;;;;3.65;2.75;;;20.00;92.80;;;19.94;63.44;98728.59;5036696;28;20120;-80
2022/10/25 06:35:28;;;;;;;4.25;2.90;;;20.10;92.90;;;19.95;63.40;98735.72;5049630;28;20041;-81
2022/10/25 06:37:59;;;;;;;4.35;2.75;;;20.10;93.20;;;19.95;63.77;98738.50;5047160;28;20036;-81
2022/10/25 06:40:26;;;;;;;3.13;2.83;;;20.10;93.00;;;19.97;63.73;98738.94;5056063;28;20068;-81
2022/10/25 06:42:55;;;;;;;3.08;2.78;;;20.10;93.00;;;19.98;63.51;98748.03;5020383;28;20068;-81
2022/10/25 06:45:23;;;;;;;3.38;2.85;;;20.10;92.90;;;20.00;63.29;98749.28;5050756;28;20457;-81
2022/10/25 06:47:49;;;;;;;2.95;2.63;;;20.10;92.80;;;20.01;63.08;98737.13;5061866;28;20048;-81
2022/10/25 06:50:15;;;;;;;4.03;3.35;;;20.10;92.80;;;20.01;63.24;98741.84;5047808;28;20105;-80
2022/10/25 06:52:41;;;;;;;3.13;2.70;;;20.10;92.80;;;20.00;63.49;98746.53;5060214;28;20040;-81
2022/10/25 06:55:07;;;;;;;4.82;3.15;;;20.10;92.90;;;20.00;63.63;98742.94;5084508;28;20075;-81
2022/10/25 06:57:33;;;;;;;9.88;2.90;;;20.10;92.90;;;20.02;63.37;98743.44;5045250;28;20119;-81
2022/10/25 07:00:00;;;;;;;2.47;2.28;;;20.10;92.90;;;20.02;63.17;98744.22;5049318;28;20051;-81
2022/10/25 07:02:26;;;;;;;3.63;2.90;;;20.10;92.70;;;20.06;62.83;98750.69;5031212;28;20047;-81
2022/10/25 07:04:52;;;;;;;3.05;2.70;;;20.20;92.70;;;20.07;62.70;98760.53;5048476;28;20097;-81
2022/10/25 07:07:18;;;;;;;2.70;2.50;;;20.20;92.70;;;20.06;62.94;98767.19;5078105;28;20045;-81
2022/10/25 07:09:44;;;;;;;2.85;2.53;;;20.20;92.70;;;20.07;63.14;98774.31;5029723;28;20037;-80
2022/10/25 07:12:10;;;;;;;3.25;2.90;;;20.20;92.80;;;20.09;62.81;98771.22;5068471;28;20119;-81
2022/10/25 07:14:37;;;;;;;2.83;2.63;;;20.20;92.80;;;20.06;62.97;98772.72;5034123;28;20054;-81
2022/10/25 07:17:03;;;;;;;3.58;2.90;;;20.20;92.70;;;20.07;63.01;98782.56;5050861;28;20124;-81
2022/10/25 07:19:29;;;;;;;3.33;2.80;;;20.20;92.70;;;20.07;62.88;98790.03;5068259;28;20036;-81
2022/10/25 07:21:55;;;;;;;2.50;2.30;;;20.20;92.70;;;20.06;62.89;98783.72;5066741;28;20052;-81
2022/10/25 07:24:21;;;;;;;2.78;2.35;;;20.20;92.70;;;20.08;62.96;98794.41;5034175;28;20044;-81
2022/10/25 07:26:47;;;;;;;3.25;2.70;;;20.20;92.70;;;20.10;62.65;98798.44;5049378;28;20528;-81
2022/10/25 07:29:13;;;;;;;2.88;2.58;;;20.20;92.70;;;20.10;62.80;98801.19;5053515;28;20048;-81
2022/10/25 07:31:42;;;;;;;3.97;2.90;;;20.20;92.70;;;20.09;62.75;98804.28;5049910;28;20155;-81
2022/10/25 07:34:10;;;;;;;2.97;2.45;;;20.30;92.70;;;20.10;62.61;98792.94;5063507;28;20055;-81
2022/10/25 07:36:37;;;;;;;2.80;2.60;;;20.30;92.70;;;20.13;62.28;98791.44;5054780;28;20128;-81
2022/10/25 07:39:03;;;;;;;2.28;2.13;;;20.20;92.70;;;20.13;62.37;98788.69;5047240;28;20047;-81
2022/10/25 07:41:29;;;;;;;4.38;2.60;;;20.30;92.70;;;20.12;63.04;98781.56;5061666;28;20581;-81
2022/10/25 07:43:55;;;;;;;3.13;2.45;;;20.30;92.70;;;20.14;62.83;98771.81;5031062;28;20040;-81
2022/10/25 07:46:21;;;;;;;2.83;2.58;;;20.30;92.70;;;20.13;62.69;98772.19;5046758;28;20046;-81
2022/10/25 07:48:48;;;;;;;3.72;2.35;;;20.30;92.70;;;20.11;62.63;98769.75;5035790;28;20133;-81
2022/10/25 07:51:15;;;;;;;2.78;2.55;;;20.30;92.70;;;20.12;62.56;98763.13;5064959;28;20567;-81
2022/10/25 07:53:41;;;;;;;3.70;2.80;;;20.30;92.70;;;20.12;62.57;98749.34;5066745;28;20146;-81
2022/10/25 07:56:18;;;;;;;2.25;1.73;;;20.30;92.70;;;20.13;62.58;98750.94;5067654;28;20129;-80
2022/10/25 07:58:44;;;;;;;2.38;2.17;;;20.40;92.70;;;20.15;62.68;98743.16;5047220;28;20493;-81
2022/10/25 08:01:10;;;;;;;2.85;2.50;;;20.30;92.70;;;20.19;62.20;98728.72;5046942;28;20131;-81
2022/10/25 08:03:36;;;;;;;2.72;2.13;;;20.30;92.60;;;20.19;62.34;98723.19;5063575;28;20044;-81
2022/10/25 08:06:02;;;;;;;4.22;2.45;;;20.40;92.60;;;20.17;62.48;98734.53;5029744;28;20040;-81
2022/10/25 08:08:29;;;;;;;3.15;2.70;;;20.40;92.60;;;20.18;62.25;98727.91;5033456;28;20051;-81
2022/10/25 08:10:55;;;;;;;3.15;2.33;;;20.40;92.60;;;20.16;62.32;98731.00;5036510;28;20119;-80
2022/10/25 08:13:21;;;;;;;3.20;2.20;;;20.40;92.60;;;20.17;62.51;98727.09;5053281;28;20069;-81
2022/10/25 08:15:54;;;;;;;3.95;2.53;;;20.40;92.60;;;20.22;61.93;98725.25;5049037;28;20036;-81
2022/10/25 08:18:21;;;;;;;2.28;2.05;;;20.40;92.60;;;20.22;62.27;98723.31;5053366;28;20458;-81
2022/10/25 08:20:47;;;;;;;2.70;2.20;;;20.40;92.60;;;20.21;61.97;98724.47;5049531;28;20044;-81
2022/10/25 08:23:14;;;;;;;2.50;2.30;;;20.40;92.60;;;20.18;62.26;98725.16;5050126;28;20058;-81
2022/10/25 08:25:42;;;;;;;3.83;3.22;;;20.40;92.60;;;20.22;62.06;98717.81;5047523;28;20198;-81
2022/10/25 08:28:08;;;;;;;2.60;2.40;;;20.40;92.50;;;20.23;61.89;98722.19;5067155;28;20041;-81
2022/10/25 08:30:35;;;;;;;2.70;2.22;;;20.40;92.50;;;20.28;61.99;98723.94;5051001;28;20055;-81
2022/10/25 08:33:01;;;;;;;1.85;1.75;;;20.40;92.60;;;20.29;61.87;98729.06;5036324;28;20481;-81
2022/10/25 08:35:27;;;;;;;3.03;2.20;;;20.40;92.60;;;20.32;61.64;98733.09;5045085;28;20425;-81
2022/10/25 08:37:53;;;;;;;2.28;2.05;;;20.40;92.50;;;20.34;61.28;98748.16;5053154;28;20107;-81
2022/10/25 08:40:24;;;;;;;2.60;2.40;;;20.50;92.50;;;20.35;61.36;98747.03;5046195;28;20044;-81
2022/10/25 08:43:11;;;;;;;3.08;2.60;;;20.40;92.50;;;20.33;61.36;98748.50;5062235;28;20051;-81
2022/10/25 08:45:54;;;;;;;1.92;1.77;;;20.50;92.50;;;20.35;61.54;98751.69;5083137;28;20095;-81
2022/10/25 08:48:22;;;;;;;3.55;2.30;;;20.50;92.50;;;20.36;61.65;98758.84;5052106;28;20079;-81
2022/10/25 08:50:51;;;;;;;2.65;2.35;;;20.50;92.50;;;20.35;61.52;98755.28;5047135;28;20119;-81
2022/10/25 08:53:29;;;;;;;2.40;2.20;;;20.50;92.50;;;20.37;61.46;98766.75;5053125;28;20127;-80
2022/10/25 08:55:55;;;;;;;3.00;2.03;;;20.50;92.40;;;20.44;61.28;98768.94;5072681;28;20069;-81
2022/10/25 08:58:27;;;;;;;3.15;2.38;;;20.60;92.50;;;20.55;60.49;98772.09;5052666;28;20555;-81
2022/10/25 09:00:53;;;;;;;2.10;1.85;;;20.60;92.40;;;20.59;60.19;98778.56;5067865;28;20058;-81
2022/10/25 09:03:24;;;;;;;2.50;2.30;;;20.60;92.40;;;20.64;60.40;98791.31;5034933;28;20109;-81
2022/10/25 09:06:08;;;;;;;4.25;2.20;;;20.60;92.40;;;20.62;60.18;98782.59;5068186;28;20150;-81
2022/10/25 09:09:23;;;;;;;2.20;1.90;;;20.60;92.40;;;20.55;60.22;98780.38;5054221;28;20055;-81
2022/10/25 09:12:09;;;;;;;3.88;2.78;;;20.60;92.40;;;20.50;60.64;98795.13;5077823;28;20142;-81
2022/10/25 09:15:15;;;;;;;4.00;2.05;;;20.60;92.40;;;20.46;60.92;98808.00;5064700;28;20052;-81
2022/10/25 09:17:50;;;;;;;2.63;2.42;;;20.60;92.40;;;20.51;60.79;98798.72;5080510;28;20441;-81
2022/10/25 09:20:50;;;;;;;2.03;1.83;;;20.70;92.40;;;20.49;60.64;98807.31;5061383;28;20044;-81
2022/10/25 09:23:29;;;;;;;1.80;1.52;;;20.70;92.40;;;20.46;61.14;98813.50;5065369;28;20165;-81
2022/10/25 09:26:21;;;;;;;1.98;1.67;;;20.60;92.40;;;20.42;61.03;98809.81;5070306;28;20036;-81
2022/10/25 09:29:08;;;;;;;2.20;2.00;;;20.60;92.40;;;20.45;60.74;98800.84;5077142;28;20123;-81
2022/10/25 09:31:41;;;;;;;1.98;1.88;;;20.60;92.40;;;20.43;60.83;98808.69;5081083;28;20036;-81
2022/10/25 09:34:09;;;;;;;2.33;2.13;;;20.70;92.40;;;20.47;60.30;98804.09;5047924;28;20044;-80
2022/10/25 09:36:44;;;;;;;3.00;1.95;;;20.70;92.40;;;20.52;60.95;98806.63;5049283;28;20057;-81
2022/10/25 09:39:34;;;;;;;2.53;1.90;;;20.70;92.40;;;20.52;60.94;98805.84;5018390;28;20119;-81
2022/10/25 09:42:00;;;;;;;2.50;2.30;;;20.70;92.40;;;20.54;60.40;98798.88;5051068;28;20055;-81
2022/10/25 09:44:45;;;;;;;1.80;1.70;;;20.70;92.40;;;20.57;60.20;98806.44;5048132;28;20053;-81
2022/10/25 09:48:05;;;;;;;2.13;2.03;;;20.70;92.40;;;20.57;60.31;98800.13;5048476;28;20049;-81
2022/10/25 09:50:42;;;;;;;2.67;2.13;;;20.70;92.30;;;20.59;60.53;98800.59;5060828;28;20052;-81
2022/10/25 09:53:18;;;;;;;1.80;1.70;;;20.70;92.40;;;20.57;60.51;98808.41;5041308;28;20063;-81
2022/10/25 09:55:55;;;;;;;1.42;1.33;;;20.70;92.40;;;20.57;60.56;98803.69;5018224;28;20116;-81
2022/10/25 09:58:38;;;;;;;2.92;1.70;;;20.80;92.40;;;20.54;60.68;98801.63;5031818;28;20068;-81
2022/10/25 10:01:19;;;;;;;4.10;2.28;;;20.70;92.30;;;20.53;60.75;98802.75;5057788;28;20128;-81
2022/10/25 10:03:45;;;;;;;2.67;2.50;;;20.70;92.30;;;20.51;60.59;98799.53;5025814;28;20098;-81
2022/10/25 10:06:20;;;;;;;1.98;1.80;;;20.70;92.30;;;20.54;60.86;98796.13;5065871;28;20075;-81
2022/10/25 10:08:58;;;;;;;2.30;2.10;;;20.70;92.30;;;20.56;60.58;98798.53;5049338;28;20606;-81
2022/10/25 10:11:25;;;;;;;2.65;2.20;;;20.80;92.40;;;20.56;60.63;98798.53;5051379;28;20100;-81
2022/10/25 10:13:56;;;;;;;1.42;1.33;;;20.80;92.40;;;20.56;60.76;98801.28;5021536;28;20124;-81
2022/10/25 10:16:35;;;;;;;2.42;1.67;;;20.80;92.40;;;20.53;60.82;98796.41;5032367;28;20043;-81
2022/10/25 10:19:28;;;;;;;1.73;1.63;;;20.80;92.40;;;20.56;60.63;98801.28;5037810;28;20119;-81
2022/10/25 10:22:11;;;;;;;2.15;1.70;;;20.80;92.30;;;20.55;60.51;98803.22;5071030;28;20048;-81
2022/10/25 10:24:40;;;;;;;1.52;1.42;;;20.80;92.30;;;20.53;60.58;98788.13;5033615;28;20051;-81
2022/10/25 10:27:25;;;;;;;1.90;1.80;;;20.80;92.40;;;20.55;60.83;98786.69;5039554;28;20444;-81
2022/10/25 10:30:05;;;;;;;2.25;2.05;;;20.80;92.40;;;20.52;60.60;98795.59;5035007;28;20041;-81
2022/10/25 10:32:34;;;;;;;1.92;1.80;;;20.80;92.30;;;20.53;60.71;98794.47;5035706;28;20103;-81
2022/10/25 10:35:02;;;;;;;2.08;1.90;;;20.80;92.30;;;20.52;60.60;98798.38;5057070;28;20078;-81
2022/10/25 10:37:29;;;;;;;2.55;2.25;;;20.80;92.30;;;20.56;60.69;98801.28;5023006;28;20132;-81